createdAt,value
2023-01-08T00:01:10.672Z,4.30
2023-01-08T00:03:38.475Z,4.30
2023-01-08T00:06:08.156Z,4.20
2023-01-08T00:08:34.909Z,4.20
2023-01-08T00:11:01.805Z,4.30
2023-01-08T00:13:28.839Z,4.20
2023-01-08T00:15:55.541Z,4.20
2023-01-08T00:18:22.164Z,4.20
2023-01-08T00:20:48.835Z,4.30
2023-01-08T00:23:17.514Z,4.30
2023-01-08T00:25:44.951Z,4.20
2023-01-08T00:28:11.875Z,4.20
2023-01-08T00:30:38.535Z,4.20
2023-01-08T00:33:05.111Z,4.20
2023-01-08T00:35:31.809Z,4.20
2023-01-08T00:37:58.434Z,4.20
2023-01-08T00:40:25.028Z,4.20
2023-01-08T00:42:51.596Z,4.10
2023-01-08T00:45:18.169Z,4.10
2023-01-08T00:47:44.734Z,4.10
2023-01-08T00:50:11.787Z,4.00
2023-01-08T00:52:38.683Z,3.90
2023-01-08T00:55:05.778Z,3.90
2023-01-08T00:57:34.232Z,3.90
2023-01-08T01:00:00.816Z,4.00
2023-01-08T01:02:27.856Z,4.00
2023-01-08T01:04:54.811Z,4.00
2023-01-08T01:07:21.523Z,4.00
2023-01-08T01:09:48.144Z,4.00
2023-01-08T01:12:14.754Z,4.00
2023-01-08T01:14:41.471Z,4.00
2023-01-08T01:17:08.060Z,3.90
2023-01-08T01:19:34.625Z,4.00
2023-01-08T01:22:01.703Z,4.00
2023-01-08T01:24:28.300Z,4.00
2023-01-08T01:26:56.562Z,4.00
2023-01-08T01:29:24.793Z,4.00
2023-01-08T01:31:51.349Z,4.00
2023-01-08T01:34:17.984Z,4.00
2023-01-08T01:36:44.531Z,4.00
2023-01-08T01:39:11.213Z,4.10
2023-01-08T01:41:43.657Z,4.10
2023-01-08T01:44:36.334Z,4.10
2023-01-08T01:47:25.627Z,4.10
2023-01-08T01:50:12.072Z,4.10
2023-01-08T01:53:01.657Z,4.10
2023-01-08T01:55:29.323Z,4.10
2023-01-08T01:58:05.169Z,4.10
2023-01-08T02:00:33.551Z,4.20
2023-01-08T02:03:00.468Z,4.30
2023-01-08T02:05:38.392Z,4.30
2023-01-08T02:08:12.623Z,4.30
2023-01-08T02:10:51.554Z,4.40
2023-01-08T02:13:24.787Z,4.30
2023-01-08T02:16:28.078Z,4.30
2023-01-08T02:19:07.763Z,4.40
2023-01-08T02:21:53.360Z,4.40
2023-01-08T02:24:54.125Z,4.50
2023-01-08T02:27:23.927Z,4.60
2023-01-08T02:29:53.181Z,4.60
2023-01-08T02:32:42.839Z,4.60
2023-01-08T02:35:10.327Z,4.50
2023-01-08T02:37:37.767Z,4.50
2023-01-08T02:40:04.299Z,4.50
2023-01-08T02:42:42.075Z,4.50
2023-01-08T02:45:28.012Z,4.60
2023-01-08T02:48:14.830Z,4.60
2023-01-08T02:50:56.439Z,4.50
2023-01-08T02:53:37.200Z,4.50
2023-01-08T02:56:08.083Z,4.50
2023-01-08T02:58:37.582Z,4.50
2023-01-08T03:01:07.821Z,4.50
2023-01-08T03:03:36.760Z,4.50
2023-01-08T03:06:07.456Z,4.50
2023-01-08T03:08:38.296Z,4.40
2023-01-08T03:11:13.090Z,4.40
2023-01-08T03:13:57.556Z,4.40
2023-01-08T03:16:31.010Z,4.40
2023-01-08T03:19:18.605Z,4.50
2023-01-08T03:21:47.850Z,4.50
2023-01-08T03:24:17.591Z,4.60
2023-01-08T03:26:46.746Z,4.60
2023-01-08T03:29:17.485Z,4.60
2023-01-08T03:31:45.668Z,4.70
2023-01-08T03:34:15.028Z,4.70
2023-01-08T03:36:46.313Z,4.70
2023-01-08T03:39:18.556Z,4.60
2023-01-08T03:41:48.329Z,4.70
2023-01-08T03:44:15.193Z,4.70
2023-01-08T03:46:47.646Z,4.70
2023-01-08T03:49:15.849Z,4.60
2023-01-08T03:51:47.363Z,4.60
2023-01-08T03:54:18.081Z,4.60
2023-01-08T03:56:45.161Z,4.60
2023-01-08T03:59:15.925Z,4.60
2023-01-08T04:01:42.733Z,4.60
2023-01-08T04:04:10.885Z,4.60
2023-01-08T04:06:37.742Z,4.60
2023-01-08T04:09:04.780Z,4.60
2023-01-08T04:11:32.092Z,4.60
2023-01-08T04:13:58.904Z,4.60
2023-01-08T04:16:25.662Z,4.60
2023-01-08T04:18:52.263Z,4.70
2023-01-08T04:21:18.832Z,4.60
2023-01-08T04:23:48.211Z,4.60
2023-01-08T04:26:14.815Z,4.70
2023-01-08T04:28:41.377Z,4.60
2023-01-08T04:31:09.296Z,4.70
2023-01-08T04:33:36.229Z,4.80
2023-01-08T04:36:03.923Z,4.80
2023-01-08T04:38:30.676Z,4.80
2023-01-08T04:41:01.669Z,4.80
2023-01-08T04:43:29.184Z,4.70
2023-01-08T04:46:04.258Z,4.80
2023-01-08T04:48:31.269Z,4.90
2023-01-08T04:50:58.997Z,4.90
2023-01-08T04:53:25.980Z,4.90
2023-01-08T04:55:52.598Z,4.90
2023-01-08T04:58:19.188Z,4.90
2023-01-08T05:00:45.847Z,5.00
2023-01-08T05:03:12.676Z,5.10
2023-01-08T05:05:39.297Z,5.10
2023-01-08T05:08:05.905Z,5.20
2023-01-08T05:10:32.488Z,5.10
2023-01-08T05:13:00.569Z,5.00
2023-01-08T05:15:27.814Z,5.00
2023-01-08T05:18:01.262Z,5.00
2023-01-08T05:20:28.080Z,5.10
2023-01-08T05:22:54.749Z,5.10
2023-01-08T05:25:21.622Z,5.20
2023-01-08T05:27:48.196Z,5.10
2023-01-08T05:30:14.999Z,5.10
2023-01-08T05:32:41.669Z,5.20
2023-01-08T05:35:08.717Z,5.20
2023-01-08T05:37:35.841Z,5.20
2023-01-08T05:40:02.654Z,5.20
2023-01-08T05:42:29.278Z,5.20
2023-01-08T05:44:55.834Z,5.20
2023-01-08T05:47:22.418Z,5.20
2023-01-08T05:49:49.161Z,5.20
2023-01-08T05:52:15.737Z,5.20
2023-01-08T05:54:42.305Z,5.20
2023-01-08T05:57:08.902Z,5.20
2023-01-08T05:59:35.696Z,5.30
2023-01-08T06:02:02.232Z,5.30
2023-01-08T06:04:28.847Z,5.30
2023-01-08T06:06:55.418Z,5.30
2023-01-08T06:09:21.988Z,5.30
2023-01-08T06:11:48.602Z,5.20
2023-01-08T06:14:16.391Z,5.20
2023-01-08T06:16:46.114Z,5.20
2023-01-08T06:19:12.816Z,5.20
2023-01-08T06:21:39.392Z,5.20
2023-01-08T06:24:06.120Z,5.30
2023-01-08T06:26:32.720Z,5.40
2023-01-08T06:28:59.368Z,5.40
2023-01-08T06:31:26.014Z,5.40
2023-01-08T06:33:52.585Z,5.40
2023-01-08T06:36:19.157Z,5.40
2023-01-08T06:38:45.779Z,5.50
2023-01-08T06:41:12.456Z,5.50
2023-01-08T06:43:39.288Z,5.60
2023-01-08T06:46:07.927Z,5.60
2023-01-08T06:48:35.292Z,5.60
2023-01-08T06:51:02.719Z,5.60
2023-01-08T06:53:29.751Z,5.50
2023-01-08T06:55:58.411Z,5.50
2023-01-08T06:58:26.660Z,5.60
2023-01-08T07:00:53.530Z,5.60
2023-01-08T07:03:20.621Z,5.60
2023-01-08T07:05:47.328Z,5.60
2023-01-08T07:08:15.403Z,5.60
2023-01-08T07:10:43.058Z,5.60
2023-01-08T07:13:09.777Z,5.60
2023-01-08T07:15:37.212Z,5.50
2023-01-08T07:18:12.070Z,5.50
2023-01-08T07:20:38.700Z,5.50
2023-01-08T07:23:07.053Z,5.50
2023-01-08T07:25:33.893Z,5.50
2023-01-08T07:28:00.869Z,5.50
2023-01-08T07:30:30.192Z,5.50
2023-01-08T07:33:01.289Z,5.50
2023-01-08T07:35:28.576Z,5.50
2023-01-08T07:37:55.470Z,5.50
2023-01-08T07:40:22.030Z,5.60
2023-01-08T07:42:48.963Z,5.60
2023-01-08T07:45:15.498Z,5.60
2023-01-08T07:47:42.055Z,5.50
2023-01-08T07:50:09.058Z,5.60
2023-01-08T07:52:35.679Z,5.60
2023-01-08T07:55:02.221Z,5.60
2023-01-08T07:57:29.695Z,5.50
2023-01-08T07:59:56.262Z,5.50
2023-01-08T08:02:22.989Z,5.50
2023-01-08T08:04:49.750Z,5.60
2023-01-08T08:07:16.321Z,5.50
2023-01-08T08:09:42.882Z,5.60
2023-01-08T08:12:09.463Z,5.60
2023-01-08T08:14:36.137Z,5.70
2023-01-08T08:17:02.701Z,5.70
2023-01-08T08:19:29.257Z,5.70
2023-01-08T08:21:55.835Z,5.60
2023-01-08T08:24:22.437Z,5.60
2023-01-08T08:26:49.844Z,5.70
2023-01-08T08:29:16.470Z,5.70
2023-01-08T08:31:43.054Z,5.70
2023-01-08T08:34:09.718Z,5.80
2023-01-08T08:36:36.264Z,5.80
2023-01-08T08:39:03.378Z,5.90
2023-01-08T08:41:29.957Z,5.90
2023-01-08T08:43:56.590Z,5.90
2023-01-08T08:46:25.306Z,5.90
2023-01-08T08:48:51.958Z,5.90
2023-01-08T08:51:18.817Z,5.90
2023-01-08T08:53:45.382Z,5.90
2023-01-08T08:56:11.967Z,6.00
2023-01-08T08:58:39.046Z,6.00
2023-01-08T09:01:05.744Z,6.00
2023-01-08T09:03:32.414Z,5.90
2023-01-08T09:05:59.976Z,6.00
2023-01-08T09:08:26.962Z,6.00
2023-01-08T09:10:53.731Z,6.00
2023-01-08T09:13:20.315Z,6.00
2023-01-08T09:15:47.070Z,6.10
2023-01-08T09:18:15.899Z,6.10
2023-01-08T09:20:42.714Z,6.00
2023-01-08T09:23:09.720Z,6.00
2023-01-08T09:25:36.280Z,6.00
2023-01-08T09:28:05.155Z,6.00
2023-01-08T09:30:32.352Z,6.10
2023-01-08T09:33:02.525Z,6.10
2023-01-08T09:35:30.574Z,6.00
2023-01-08T09:37:57.984Z,6.10
2023-01-08T09:40:31.319Z,6.10
2023-01-08T09:43:01.117Z,6.20
2023-01-08T09:45:33.038Z,6.20
2023-01-08T09:48:03.215Z,6.30
2023-01-08T09:50:31.765Z,6.30
2023-01-08T09:52:58.901Z,6.30
2023-01-08T09:55:27.457Z,6.30
2023-01-08T09:57:54.123Z,6.30
2023-01-08T10:00:29.196Z,6.30
2023-01-08T10:02:57.716Z,6.40
2023-01-08T10:05:26.905Z,6.30
2023-01-08T10:07:53.603Z,6.40
2023-01-08T10:10:22.565Z,6.30
2023-01-08T10:12:50.613Z,6.40
2023-01-08T10:15:19.936Z,6.40
2023-01-08T10:18:09.825Z,6.40
2023-01-08T10:20:37.606Z,6.40
2023-01-08T10:23:10.218Z,6.40
2023-01-08T10:25:54.277Z,6.50
2023-01-08T10:28:27.550Z,6.50
2023-01-08T10:31:00.026Z,6.50
2023-01-08T10:33:31.549Z,6.60
2023-01-08T10:36:02.347Z,6.60
2023-01-08T10:38:35.724Z,6.60
2023-01-08T10:41:08.927Z,6.70
2023-01-08T10:44:02.781Z,6.70
2023-01-08T10:46:36.401Z,6.70
2023-01-08T10:49:05.461Z,6.80
2023-01-08T10:51:32.921Z,6.80
2023-01-08T10:54:12.705Z,6.80
2023-01-08T10:56:44.483Z,6.90
2023-01-08T10:59:21.489Z,6.90
2023-01-08T11:01:49.908Z,6.90
2023-01-08T11:04:32.435Z,6.90
2023-01-08T11:07:05.513Z,7.00
2023-01-08T11:09:39.173Z,7.00
2023-01-08T11:12:41.686Z,7.10
2023-01-08T11:15:30.978Z,7.20
2023-01-08T11:18:13.100Z,7.40
2023-01-08T11:20:41.799Z,7.40
2023-01-08T11:23:26.489Z,7.40
2023-01-08T11:26:05.463Z,7.40
2023-01-08T11:28:56.191Z,7.50
2023-01-08T11:31:34.470Z,7.40
2023-01-08T11:34:11.008Z,7.50
2023-01-08T11:36:47.100Z,7.60
2023-01-08T11:39:13.691Z,7.60
2023-01-08T11:42:19.473Z,7.70
2023-01-08T11:44:58.103Z,7.80
2023-01-08T11:47:52.260Z,7.90
2023-01-08T11:50:25.002Z,8.00
2023-01-08T11:53:23.720Z,8.00
2023-01-08T11:56:00.591Z,8.00
2023-01-08T11:58:51.121Z,8.00
2023-01-08T12:01:35.425Z,8.00
2023-01-08T12:04:14.046Z,8.10
2023-01-08T12:06:58.968Z,8.10
2023-01-08T12:09:47.013Z,8.10
2023-01-08T12:12:35.149Z,8.20
2023-01-08T12:15:18.367Z,8.10
2023-01-08T12:18:03.765Z,8.20
2023-01-08T12:20:51.961Z,8.20
2023-01-08T12:23:30.395Z,8.20
2023-01-08T12:26:18.545Z,8.20
2023-01-08T12:29:24.835Z,8.20
2023-01-08T12:32:11.832Z,8.20
2023-01-08T12:34:52.535Z,8.30
2023-01-08T12:37:51.955Z,8.30
2023-01-08T12:40:31.922Z,8.30
2023-01-08T12:43:02.187Z,8.30
2023-01-08T12:45:51.969Z,8.30
2023-01-08T12:48:27.980Z,8.30
2023-01-08T12:51:26.652Z,8.30
2023-01-08T12:54:02.691Z,8.30
2023-01-08T12:56:54.324Z,8.40
2023-01-08T12:59:40.379Z,8.40
2023-01-08T13:02:26.264Z,8.40
2023-01-08T13:04:53.205Z,8.40
2023-01-08T13:07:30.328Z,8.50
2023-01-08T13:10:08.156Z,8.40
2023-01-08T13:12:37.713Z,8.40
2023-01-08T13:15:05.486Z,8.40
2023-01-08T13:17:32.408Z,8.40
2023-01-08T13:20:05.718Z,8.50
2023-01-08T13:22:35.408Z,8.40
2023-01-08T13:25:17.335Z,8.40
2023-01-08T13:27:45.560Z,8.40
2023-01-08T13:30:36.011Z,8.50
2023-01-08T13:33:02.931Z,8.40
2023-01-08T13:35:31.714Z,8.40
2023-01-08T13:38:10.494Z,8.40
2023-01-08T13:40:49.052Z,8.40
2023-01-08T13:43:29.962Z,8.40
2023-01-08T13:46:02.403Z,8.40
2023-01-08T13:48:33.824Z,8.50
2023-01-08T13:51:00.623Z,8.50
2023-01-08T13:53:27.331Z,8.50
2023-01-08T13:56:08.528Z,8.50
2023-01-08T13:58:45.232Z,8.50
2023-01-08T14:01:13.307Z,8.60
2023-01-08T14:03:46.701Z,8.50
2023-01-08T14:06:24.964Z,8.50
2023-01-08T14:08:59.797Z,8.60
2023-01-08T14:11:43.863Z,8.60
2023-01-08T14:14:15.972Z,8.70
2023-01-08T14:16:42.994Z,8.60
2023-01-08T14:19:16.699Z,8.60
2023-01-08T14:21:51.963Z,8.60
2023-01-08T14:24:20.138Z,8.60
2023-01-08T14:27:00.005Z,8.70
2023-01-08T14:29:30.686Z,8.60
2023-01-08T14:32:00.541Z,8.60
2023-01-08T14:34:30.995Z,8.60
2023-01-08T14:36:57.904Z,8.60
2023-01-08T14:39:25.510Z,8.60
2023-01-08T14:42:14.535Z,8.60
2023-01-08T14:44:44.242Z,8.60
2023-01-08T14:47:18.703Z,8.60
2023-01-08T14:49:51.469Z,8.60
2023-01-08T14:52:20.553Z,8.70
2023-01-08T14:54:52.593Z,8.60
2023-01-08T14:57:20.136Z,8.60
2023-01-08T14:59:54.898Z,8.60
2023-01-08T15:02:39.512Z,8.60
2023-01-08T15:05:47.907Z,8.70
2023-01-08T15:08:26.384Z,8.60
2023-01-08T15:11:15.391Z,8.60
2023-01-08T15:13:42.078Z,8.60
2023-01-08T15:16:15.049Z,8.50
2023-01-08T15:18:45.551Z,8.50
2023-01-08T15:21:20.562Z,8.50
2023-01-08T15:23:58.243Z,8.50
2023-01-08T15:26:25.157Z,8.40
2023-01-08T15:28:54.003Z,8.50
2023-01-08T15:31:43.743Z,8.40
2023-01-08T15:34:10.989Z,8.40
2023-01-08T15:36:37.923Z,8.30
2023-01-08T15:39:05.433Z,8.30
2023-01-08T15:41:58.065Z,8.40
2023-01-08T15:44:25.799Z,8.40
2023-01-08T15:46:53.094Z,8.40
2023-01-08T15:49:19.932Z,8.40
2023-01-08T15:51:51.808Z,8.50
2023-01-08T15:54:21.183Z,8.50
2023-01-08T15:56:47.738Z,8.50
2023-01-08T15:59:14.374Z,8.50
2023-01-08T16:01:41.078Z,8.40
2023-01-08T16:04:07.899Z,8.40
2023-01-08T16:06:36.087Z,8.50
2023-01-08T16:09:02.817Z,8.50
2023-01-08T16:11:29.756Z,8.50
2023-01-08T16:13:56.340Z,8.50
2023-01-08T16:16:23.064Z,8.50
2023-01-08T16:18:49.820Z,8.50
2023-01-08T16:21:16.537Z,8.50
2023-01-08T16:23:43.134Z,8.50
2023-01-08T16:26:12.342Z,8.50
2023-01-08T16:28:39.525Z,8.40
2023-01-08T16:31:06.939Z,8.40
2023-01-08T16:33:33.664Z,8.40
2023-01-08T16:36:02.438Z,8.40
2023-01-08T16:38:29.594Z,8.40
2023-01-08T16:40:56.791Z,8.30
2023-01-08T16:43:24.637Z,8.30
2023-01-08T16:45:51.579Z,8.30
2023-01-08T16:48:18.654Z,8.30
2023-01-08T16:50:45.356Z,8.30
2023-01-08T16:53:12.475Z,8.20
2023-01-08T16:55:41.943Z,8.30
2023-01-08T16:58:09.143Z,8.20
2023-01-08T17:00:37.558Z,8.20
2023-01-08T17:03:05.426Z,8.20
2023-01-08T17:05:32.759Z,8.20
2023-01-08T17:07:59.354Z,8.10
2023-01-08T17:10:26.616Z,8.10
2023-01-08T17:12:53.273Z,8.10
2023-01-08T17:15:19.899Z,8.10
2023-01-08T17:17:46.570Z,8.10
2023-01-08T17:20:13.333Z,8.10
2023-01-08T17:22:39.912Z,8.10
2023-01-08T17:25:06.863Z,8.20
2023-01-08T17:27:36.816Z,8.20
2023-01-08T17:30:03.987Z,8.20
2023-01-08T17:32:30.544Z,8.10
2023-01-08T17:34:57.196Z,8.10
2023-01-08T17:37:23.803Z,8.10
2023-01-08T17:39:50.378Z,8.20
2023-01-08T17:42:27.373Z,8.20
2023-01-08T17:44:57.535Z,8.20
2023-01-08T17:47:25.320Z,8.20
2023-01-08T17:49:55.917Z,8.20
2023-01-08T17:52:24.556Z,8.20
2023-01-08T17:54:51.970Z,8.20
2023-01-08T17:57:20.224Z,8.20
2023-01-08T17:59:48.286Z,8.20
2023-01-08T18:02:16.676Z,8.20
2023-01-08T18:04:45.298Z,8.30
2023-01-08T18:07:12.131Z,8.30
2023-01-08T18:09:39.071Z,8.30
2023-01-08T18:12:05.949Z,8.30
2023-01-08T18:14:34.797Z,8.20
2023-01-08T18:17:01.651Z,8.30
2023-01-08T18:19:30.609Z,8.30
2023-01-08T18:21:58.143Z,8.30
2023-01-08T18:24:24.748Z,8.30
2023-01-08T18:26:51.514Z,8.30
2023-01-08T18:29:18.083Z,8.20
2023-01-08T18:31:46.303Z,8.20
2023-01-08T18:34:14.832Z,8.20
2023-01-08T18:36:41.472Z,8.10
2023-01-08T18:39:08.163Z,8.00
2023-01-08T18:41:53.204Z,8.00
2023-01-08T18:44:19.811Z,8.00
2023-01-08T18:46:48.028Z,8.00
2023-01-08T18:49:15.705Z,7.90
2023-01-08T18:51:42.736Z,7.80
2023-01-08T18:54:11.073Z,7.80
2023-01-08T18:56:37.781Z,7.80
2023-01-08T18:59:05.925Z,7.80
2023-01-08T19:01:34.000Z,7.70
2023-01-08T19:04:00.806Z,7.70
2023-01-08T19:06:27.402Z,7.70
2023-01-08T19:08:56.190Z,7.70
2023-01-08T19:11:24.314Z,7.70
2023-01-08T19:13:55.490Z,7.70
2023-01-08T19:16:22.472Z,7.60
2023-01-08T19:18:50.112Z,7.60
2023-01-08T19:21:19.036Z,7.60
2023-01-08T19:23:47.392Z,7.60
2023-01-08T19:26:14.444Z,7.70
2023-01-08T19:28:42.134Z,7.60
2023-01-08T19:31:12.518Z,7.60
2023-01-08T19:33:39.693Z,7.60
2023-01-08T19:36:11.061Z,7.60
2023-01-08T19:38:38.104Z,7.60
2023-01-08T19:41:05.535Z,7.60
2023-01-08T19:43:44.293Z,7.60
2023-01-08T19:46:15.397Z,7.60
2023-01-08T19:48:43.896Z,7.60
2023-01-08T19:51:12.577Z,7.60
2023-01-08T19:53:39.916Z,7.60
2023-01-08T19:56:09.153Z,7.60
2023-01-08T19:58:36.102Z,7.60
2023-01-08T20:01:12.246Z,7.60
2023-01-08T20:03:39.628Z,7.70
2023-01-08T20:06:09.642Z,7.70
2023-01-08T20:08:36.386Z,7.70
2023-01-08T20:11:11.272Z,7.70
2023-01-08T20:13:38.478Z,7.70
2023-01-08T20:16:07.458Z,7.80
2023-01-08T20:18:35.420Z,7.80
2023-01-08T20:21:07.924Z,7.90
2023-01-08T20:23:38.347Z,7.80
2023-01-08T20:26:07.464Z,7.80
2023-01-08T20:28:35.799Z,7.80
2023-01-08T20:31:22.969Z,7.80
2023-01-08T20:33:49.607Z,7.80
2023-01-08T20:36:21.898Z,7.80
2023-01-08T20:38:52.482Z,7.70
2023-01-08T20:41:20.989Z,7.80
2023-01-08T20:43:47.967Z,7.70
2023-01-08T20:46:14.979Z,7.60
2023-01-08T20:48:47.727Z,7.60
2023-01-08T20:51:15.428Z,7.60
2023-01-08T20:53:42.297Z,7.70
2023-01-08T20:56:11.661Z,7.80
2023-01-08T20:58:41.129Z,7.80
2023-01-08T21:01:22.679Z,7.70
2023-01-08T21:03:53.281Z,7.70
2023-01-08T21:06:22.521Z,7.70
2023-01-08T21:08:50.909Z,7.80
2023-01-08T21:11:18.538Z,7.80
2023-01-08T21:13:45.433Z,7.80
2023-01-08T21:16:18.359Z,7.80
2023-01-08T21:18:47.454Z,7.90
2023-01-08T21:21:16.384Z,7.90
2023-01-08T21:23:43.525Z,7.90
2023-01-08T21:26:11.855Z,7.90
2023-01-08T21:28:39.637Z,8.00
2023-01-08T21:31:16.380Z,8.00
2023-01-08T21:33:45.670Z,8.10
2023-01-08T21:36:20.371Z,8.10
2023-01-08T21:38:47.195Z,8.20
2023-01-08T21:41:36.696Z,8.20
2023-01-08T21:44:23.887Z,8.20
2023-01-08T21:46:50.890Z,8.20
2023-01-08T21:49:17.519Z,8.20
2023-01-08T21:52:02.825Z,8.20
2023-01-08T21:54:29.387Z,8.20
2023-01-08T21:56:56.004Z,8.20
2023-01-08T21:59:22.594Z,8.20
2023-01-08T22:01:49.391Z,8.20
2023-01-08T22:04:16.165Z,8.30
2023-01-08T22:06:42.809Z,8.30
2023-01-08T22:09:09.862Z,8.40
2023-01-08T22:11:36.707Z,8.50
2023-01-08T22:14:03.535Z,8.50
2023-01-08T22:16:30.190Z,8.50
2023-01-08T22:18:57.123Z,8.50
2023-01-08T22:21:23.696Z,8.50
2023-01-08T22:23:50.319Z,8.60
2023-01-08T22:26:17.159Z,8.60
2023-01-08T22:28:43.742Z,8.60
2023-01-08T22:31:12.701Z,8.50
2023-01-08T22:33:39.908Z,8.50
2023-01-08T22:36:09.129Z,8.50
2023-01-08T22:38:36.244Z,8.50
2023-01-08T22:41:03.490Z,8.50
2023-01-08T22:43:30.156Z,8.40
2023-01-08T22:46:00.147Z,8.40
2023-01-08T22:48:27.777Z,8.30
2023-01-08T22:50:54.370Z,8.40
2023-01-08T22:53:21.011Z,8.40
2023-01-08T22:55:48.380Z,8.40
2023-01-08T22:58:16.505Z,8.40
2023-01-08T23:00:44.120Z,8.30
2023-01-08T23:03:11.556Z,8.30
2023-01-08T23:05:38.257Z,8.40
2023-01-08T23:08:05.471Z,8.40
2023-01-08T23:10:32.098Z,8.40
2023-01-08T23:12:58.773Z,8.40
2023-01-08T23:15:25.669Z,8.50
2023-01-08T23:17:52.903Z,8.50
2023-01-08T23:20:20.703Z,8.50
2023-01-08T23:22:48.475Z,8.50
2023-01-08T23:25:16.160Z,8.50
2023-01-08T23:27:44.683Z,8.50
2023-01-08T23:30:11.761Z,8.60
2023-01-08T23:32:38.351Z,8.60
2023-01-08T23:35:05.361Z,8.60
2023-01-08T23:37:31.901Z,8.60
2023-01-08T23:39:58.461Z,8.60
2023-01-08T23:42:25.067Z,8.60
2023-01-08T23:44:51.613Z,8.60
2023-01-08T23:47:18.216Z,8.50
2023-01-08T23:49:44.761Z,8.50
2023-01-08T23:52:11.303Z,8.50
2023-01-08T23:54:37.993Z,8.50
2023-01-08T23:57:06.476Z,8.50
2023-01-08T23:59:33.830Z,8.50
